Time;durP1;ratioP1;P1;durP2;ratioP2;P2;SDS_P1;SDS_P2;PMS_P1;PMS_P2;Temp;Humidity;BMP_temperature;BMP_pressure;BME280_temperature;BME280_humidity;BME280_pressure;Samples;Min_cycle;Max_cycle;Signal;HPM_P1;HPM_P2
2023/06/08 00:09:15;;;;;;;4.90;3.10;;;;;;;;;;21009619;28;20105;-64
2023/06/08 00:19:16;;;;;;;5.82;3.47;;;;;;;;;;21007527;28;20045;-65
2023/06/08 00:29:17;;;;;;;6.65;2.58;;;;;;;;;;21007491;28;20049;-65
2023/06/08 00:39:18;;;;;;;7.38;2.90;;;;;;;;;;21006199;28;20131;-65
2023/06/08 00:49:20;;;;;;;4.63;3.00;;;;;;;;;;21005552;28;20127;-65
2023/06/08 00:59:22;;;;;;;8.38;3.50;;;;;;;;;;21006071;28;20048;-66
2023/06/08 01:09:23;;;;;;;5.43;3.38;;;;;;;;;;21005255;28;20036;-65
2023/06/08 01:19:48;;;;;;;7.45;4.60;;;;;;;;;;21004157;28;20036;-65
2023/06/08 01:30:17;;;;;;;8.35;4.30;;;;;;;;;;21002187;28;20112;-66
2023/06/08 01:40:30;;;;;;;6.70;4.15;;;;;;;;;;21002500;28;20482;-65
2023/06/08 01:50:32;;;;;;;6.07;3.90;;;;;;;;;;21000152;28;20055;-67
2023/06/08 02:00:34;;;;;;;8.70;4.50;;;;;;;;;;21000877;28;20040;-65
2023/06/08 02:10:35;;;;;;;9.23;4.65;;;;;;;;;;21000086;28;20446;-65
2023/06/08 02:20:36;;;;;;;5.88;4.90;;;;;;;;;;20999463;28;20464;-65
2023/06/08 02:30:37;;;;;;;6.80;4.50;;;;;;;;;;20998206;28;20571;-66
2023/06/08 02:40:38;;;;;;;9.82;5.20;;;;;;;;;;20998255;28;20044;-65
2023/06/08 02:50:39;;;;;;;11.48;5.47;;;;;;;;;;20997956;28;20052;-65
2023/06/08 03:00:40;;;;;;;9.50;4.47;;;;;;;;;;20996470;28;20037;-65
2023/06/08 03:10:41;;;;;;;9.10;5.30;;;;;;;;;;20997097;28;20044;-65
2023/06/08 03:20:43;;;;;;;7.90;5.32;;;;;;;;;;20996430;28;20096;-65
2023/06/08 03:30:45;;;;;;;9.82;5.60;;;;;;;;;;20994761;28;20057;-65
2023/06/08 03:40:46;;;;;;;7.82;4.40;;;;;;;;;;20995724;28;20526;-65
2023/06/08 03:50:47;;;;;;;7.72;4.65;;;;;;;;;;20994133;28;20044;-64
2023/06/08 04:00:49;;;;;;;7.28;4.25;;;;;;;;;;20995017;28;20045;-65
2023/06/08 04:10:50;;;;;;;6.75;4.13;;;;;;;;;;21001908;28;20048;-65
2023/06/08 04:20:51;;;;;;;7.63;4.65;;;;;;;;;;21009172;28;20093;-65
2023/06/08 04:30:52;;;;;;;5.25;3.83;;;;;;;;;;21007508;28;20158;-64
2023/06/08 04:40:55;;;;;;;7.15;4.35;;;;;;;;;;21007407;28;20067;-65
2023/06/08 04:50:59;;;;;;;10.75;4.50;;;;;;;;;;21006693;28;20512;-65
2023/06/08 05:01:00;;;;;;;8.13;3.90;;;;;;;;;;21005834;28;20076;-65
2023/06/08 05:11:02;;;;;;;6.70;4.32;;;;;;;;;;21005035;28;20401;-65
2023/06/08 05:21:03;;;;;;;8.73;4.70;;;;;;;;;;21003230;28;20504;-66
2023/06/08 05:31:04;;;;;;;8.18;4.22;;;;;;;;;;21003953;28;20066;-65
2023/06/08 05:41:06;;;;;;;7.43;3.78;;;;;;;;;;21002548;28;20511;-64
2023/06/08 05:51:07;;;;;;;9.05;4.25;;;;;;;;;;21001937;28;20493;-65
2023/06/08 06:01:09;;;;;;;9.80;4.70;;;;;;;;;;21000635;28;20123;-66
2023/06/08 06:11:10;;;;;;;7.25;4.22;;;;;;;;;;20998734;28;20056;-65
2023/06/08 06:21:12;;;;;;;11.43;4.80;;;;;;;;;;20999246;28;20482;-64
2023/06/08 06:31:13;;;;;;;8.02;4.47;;;;;;;;;;20997683;28;20425;-64
2023/06/08 06:41:14;;;;;;;10.52;4.90;;;;;;;;;;20997994;28;20052;-64
2023/06/08 06:51:15;;;;;;;11.45;5.70;;;;;;;;;;20997560;28;20127;-65
2023/06/08 07:01:16;;;;;;;10.18;4.97;;;;;;;;;;20995509;28;20047;-64
2023/06/08 07:11:17;;;;;;;8.15;4.35;;;;;;;;;;20996306;28;20591;-65
2023/06/08 07:21:21;;;;;;;10.88;4.90;;;;;;;;;;20994619;28;20044;-64
2023/06/08 07:31:23;;;;;;;7.82;5.20;;;;;;;;;;20995178;28;20045;-65
2023/06/08 07:41:26;;;;;;;13.90;5.68;;;;;;;;;;20996130;28;20055;-65
2023/06/08 07:51:27;;;;;;;12.35;6.50;;;;;;;;;;21011276;28;20044;-64
2023/06/08 08:01:28;;;;;;;6.38;2.75;;;;;;;;;;21010253;28;20455;-62
2023/06/08 08:11:29;;;;;;;8.80;4.60;;;;;;;;;;21008281;28;20052;-61
2023/06/08 08:21:30;;;;;;;13.00;5.10;;;;;;;;;;21007716;28;20119;-62
2023/06/08 08:31:31;;;;;;;13.13;5.75;;;;;;;;;;21006770;28;20513;-64
2023/06/08 08:41:33;;;;;;;7.90;4.90;;;;;;;;;;21005899;28;20123;-64
2023/06/08 08:51:38;;;;;;;13.75;4.70;;;;;;;;;;21006319;28;20052;-62
2023/06/08 09:01:40;;;;;;;10.48;6.35;;;;;;;;;;20998434;28;20041;-64
2023/06/08 09:11:58;;;;;;;10.77;6.38;;;;;;;;;;20995125;28;20076;-66
2023/06/08 09:21:59;;;;;;;;;;;;;;;;;;21003558;28;20040;-57
2023/06/08 09:32:01;;;;;;;12.38;5.50;;;;;;;;;;21000502;28;19927;-67
2023/06/08 09:42:02;;;;;;;9.63;5.38;;;;;;;;;;20998956;28;20474;-69
2023/06/08 09:52:04;;;;;;;10.65;6.10;;;;;;;;;;20998456;28;20047;-59
2023/06/08 10:02:29;;;;;;;13.05;4.90;;;;;;;;;;20996411;28;20044;-70
2023/06/08 10:12:30;;;;;;;10.00;5.07;;;;;;;;;;20995082;28;20063;-67
2023/06/08 10:22:32;;;;;;;8.45;4.97;;;;;;;;;;20996988;28;20051;-60
2023/06/08 10:32:34;;;;;;;9.60;3.80;;;;;;;;;;20994871;28;20421;-63
2023/06/08 10:42:35;;;;;;;10.10;3.95;;;;;;;;;;20996454;28;20083;-66
2023/06/08 10:52:42;;;;;;;8.35;2.90;;;;;;;;;;20993833;28;20048;-65
2023/06/08 11:02:44;;;;;;;7.25;3.03;;;;;;;;;;20996419;28;20038;-58
2023/06/08 11:12:45;;;;;;;5.60;2.60;;;;;;;;;;20994296;28;20062;-63
2023/06/08 11:22:46;;;;;;;6.45;3.80;;;;;;;;;;21004312;28;20042;-64
2023/06/08 11:32:48;;;;;;;6.50;3.42;;;;;;;;;;21008281;28;20091;-65
2023/06/08 11:42:50;;;;;;;7.82;2.80;;;;;;;;;;21008500;28;20049;-59
2023/06/08 11:52:51;;;;;;;4.72;1.95;;;;;;;;;;21009640;28;20052;-59
2023/06/08 12:02:53;;;;;;;5.03;2.22;;;;;;;;;;21010044;28;20500;-67
2023/06/08 12:12:54;;;;;;;5.57;2.50;;;;;;;;;;21009425;28;20041;-71
2023/06/08 12:22:55;;;;;;;4.20;2.47;;;;;;;;;;21006874;28;20076;-69
2023/06/08 12:32:56;;;;;;;8.30;3.08;;;;;;;;;;21005293;28;20131;-68
2023/06/08 12:42:57;;;;;;;6.15;2.70;;;;;;;;;;21006471;28;20097;-65
2023/06/08 12:52:58;;;;;;;5.30;3.45;;;;;;;;;;21006380;28;20036;-64
2023/06/08 13:02:59;;;;;;;7.20;3.33;;;;;;;;;;21005461;28;20463;-64
2023/06/08 13:13:02;;;;;;;5.03;3.05;;;;;;;;;;21004286;28;20056;-64
2023/06/08 13:23:04;;;;;;;7.75;3.33;;;;;;;;;;21002870;28;20040;-64
2023/06/08 13:33:05;;;;;;;4.88;3.45;;;;;;;;;;21001855;28;20131;-64
2023/06/08 13:43:12;;;;;;;6.20;4.20;;;;;;;;;;21000382;28;20044;-64
2023/06/08 13:53:13;;;;;;;7.28;3.60;;;;;;;;;;21001410;28;20041;-64
2023/06/08 14:03:15;;;;;;;4.60;3.25;;;;;;;;;;21000523;28;20040;-64
2023/06/08 14:13:16;;;;;;;6.65;3.22;;;;;;;;;;20998641;28;20052;-67
2023/06/08 14:23:18;;;;;;;7.60;3.03;;;;;;;;;;20999352;28;20524;-67
2023/06/08 14:33:19;;;;;;;7.15;2.33;;;;;;;;;;20997926;28;20395;-66
2023/06/08 14:43:20;;;;;;;4.65;3.38;;;;;;;;;;20999197;28;20470;-67
2023/06/08 14:53:23;;;;;;;6.13;2.97;;;;;;;;;;20997441;28;20087;-67
2023/06/08 15:03:24;;;;;;;3.88;2.42;;;;;;;;;;20995691;28;20048;-68
2023/06/08 15:13:25;;;;;;;3.92;2.10;;;;;;;;;;20996507;28;20041;-67
2023/06/08 15:23:26;;;;;;;4.88;2.70;;;;;;;;;;20995991;28;20478;-67
2023/06/08 15:33:32;;;;;;;8.88;3.30;;;;;;;;;;20995015;28;20527;-67
2023/06/08 15:43:33;;;;;;;6.80;2.65;;;;;;;;;;20995475;28;20546;-62
2023/06/08 15:53:35;;;;;;;5.10;2.13;;;;;;;;;;20995124;28;20479;-65
2023/06/08 16:03:36;;;;;;;5.95;1.70;;;;;;;;;;20995770;28;20093;-63
2023/06/08 16:13:37;;;;;;;4.75;1.75;;;;;;;;;;21001996;28;20049;-64
2023/06/08 16:23:39;;;;;;;3.05;2.20;;;;;;;;;;21001203;28;20044;-61
2023/06/08 16:33:40;;;;;;;2.08;1.38;;;;;;;;;;21007047;28;20060;-61
2023/06/08 16:43:43;;;;;;;3.15;1.33;;;;;;;;;;21007087;28;20053;-63
2023/06/08 16:53:45;;;;;;;3.90;1.50;;;;;;;;;;21006243;28;20529;-73
2023/06/08 17:03:46;;;;;;;3.83;1.67;;;;;;;;;;21005293;28;20044;-68
2023/06/08 17:13:47;;;;;;;3.15;1.73;;;;;;;;;;21004273;28;20041;-67
2023/06/08 17:23:48;;;;;;;9.57;2.20;;;;;;;;;;21003723;28;20052;-63
2023/06/08 17:33:51;;;;;;;3.85;1.83;;;;;;;;;;20998426;28;20061;-68
2023/06/08 17:43:53;;;;;;;4.85;2.22;;;;;;;;;;20996835;28;20048;-70
2023/06/08 17:53:54;;;;;;;3.38;1.90;;;;;;;;;;21001720;28;20044;-70
2023/06/08 18:03:55;;;;;;;2.95;1.75;;;;;;;;;;21000838;28;20445;-69
2023/06/08 18:13:56;;;;;;;6.70;2.42;;;;;;;;;;21000093;28;20517;-57
2023/06/08 18:23:58;;;;;;;12.13;2.15;;;;;;;;;;20998285;28;20165;-57
2023/06/08 18:34:00;;;;;;;4.57;2.45;;;;;;;;;;20996311;28;20060;-58
2023/06/08 18:44:01;;;;;;;5.82;2.40;;;;;;;;;;20997332;28;20047;-57
2023/06/08 18:54:02;;;;;;;4.13;2.08;;;;;;;;;;20997250;28;20045;-66
2023/06/08 19:04:03;;;;;;;4.90;1.83;;;;;;;;;;20996901;28;20037;-66
2023/06/08 19:14:04;;;;;;;5.22;2.70;;;;;;;;;;20995923;28;20041;-66
2023/06/08 19:24:06;;;;;;;4.28;2.42;;;;;;;;;;20995983;28;20398;-68
2023/06/08 19:34:07;;;;;;;6.55;2.60;;;;;;;;;;20993515;28;20127;-67
2023/06/08 19:44:09;;;;;;;3.35;2.20;;;;;;;;;;21004821;28;20053;-67
2023/06/08 19:54:10;;;;;;;3.03;1.80;;;;;;;;;;21010943;28;20493;-67
2023/06/08 20:04:12;;;;;;;4.10;1.92;;;;;;;;;;21009993;28;20565;-67
2023/06/08 20:14:15;;;;;;;3.88;1.55;;;;;;;;;;21009098;28;20474;-67
2023/06/08 20:24:16;;;;;;;4.72;2.05;;;;;;;;;;21008191;28;20045;-67
2023/06/08 20:34:17;;;;;;;6.40;2.47;;;;;;;;;;21005064;28;20123;-67
2023/06/08 20:44:18;;;;;;;6.85;4.50;;;;;;;;;;21005549;28;20123;-67
2023/06/08 20:54:19;;;;;;;7.05;2.28;;;;;;;;;;21003877;28;20090;-67
2023/06/08 21:04:28;;;;;;;3.78;2.10;;;;;;;;;;21003150;28;20051;-66
2023/06/08 21:14:30;;;;;;;2.97;2.00;;;;;;;;;;21004242;28;20179;-67
2023/06/08 21:24:31;;;;;;;4.20;1.80;;;;;;;;;;21003942;28;20037;-67
2023/06/08 21:34:32;;;;;;;2.55;1.63;;;;;;;;;;21001710;28;20110;-68
2023/06/08 21:44:33;;;;;;;4.78;1.85;;;;;;;;;;21002635;28;20406;-69
2023/06/08 21:54:34;;;;;;;6.97;2.40;;;;;;;;;;21000795;28;20559;-67
2023/06/08 22:04:35;;;;;;;5.63;2.90;;;;;;;;;;20998018;28;20040;-67
2023/06/08 22:14:37;;;;;;;5.53;2.75;;;;;;;;;;20998942;28;20048;-66
2023/06/08 22:24:38;;;;;;;5.15;2.50;;;;;;;;;;20996605;28;20132;-67
2023/06/08 22:34:39;;;;;;;3.88;2.50;;;;;;;;;;20998083;28;20055;-67
2023/06/08 22:44:41;;;;;;;7.60;2.75;;;;;;;;;;20995814;28;20091;-67
2023/06/08 22:54:42;;;;;;;7.30;3.55;;;;;;;;;;20996448;28;20076;-66
2023/06/08 23:04:46;;;;;;;8.02;3.90;;;;;;;;;;20996266;28;20075;-67
2023/06/08 23:14:51;;;;;;;6.20;2.95;;;;;;;;;;20994544;28;20036;-67
2023/06/08 23:24:53;;;;;;;6.05;3.30;;;;;;;;;;20995472;28;20526;-68
2023/06/08 23:34:54;;;;;;;8.02;3.40;;;;;;;;;;20993702;28;20529;-67
2023/06/08 23:44:59;;;;;;;6.07;2.88;;;;;;;;;;20995216;28;20110;-66
2023/06/08 23:55:00;;;;;;;4.22;2.25;;;;;;;;;;20995582;28;20099;-66
